sensor_id;sensor_type;location;lat;lon;timestamp;P1;durP1;ratioP1;P2;durP2;ratioP2
7045;SDS011;3564;53.326;10.356;2022-08-11T00:01:09;5.13;;;3.00;;
7045;SDS011;3564;53.326;10.356;2022-08-11T00:03:41;4.53;;;2.73;;
7045;SDS011;3564;53.326;10.356;2022-08-11T00:06:11;3.13;;;2.67;;
7045;SDS011;3564;53.326;10.356;2022-08-11T00:08:38;4.03;;;2.93;;
7045;SDS011;3564;53.326;10.356;2022-08-11T00:11:06;6.33;;;3.47;;
7045;SDS011;3564;53.326;10.356;2022-08-11T00:13:44;5.17;;;3.13;;
7045;SDS011;3564;53.326;10.356;2022-08-11T00:16:19;4.07;;;3.03;;
7045;SDS011;3564;53.326;10.356;2022-08-11T00:18:48;4.63;;;2.70;;
7045;SDS011;3564;53.326;10.356;2022-08-11T00:21:17;5.60;;;2.93;;
7045;SDS011;3564;53.326;10.356;2022-08-11T00:23:46;5.23;;;2.63;;
7045;SDS011;3564;53.326;10.356;2022-08-11T00:26:25;4.93;;;2.90;;
7045;SDS011;3564;53.326;10.356;2022-08-11T00:28:52;6.67;;;2.97;;
7045;SDS011;3564;53.326;10.356;2022-08-11T00:31:25;3.30;;;2.37;;
7045;SDS011;3564;53.326;10.356;2022-08-11T00:33:57;3.73;;;2.47;;
7045;SDS011;3564;53.326;10.356;2022-08-11T00:36:26;3.60;;;2.57;;
7045;SDS011;3564;53.326;10.356;2022-08-11T00:39:03;4.23;;;2.50;;
7045;SDS011;3564;53.326;10.356;2022-08-11T00:44:22;4.77;;;2.90;;
7045;SDS011;3564;53.326;10.356;2022-08-11T00:47:13;2.97;;;2.67;;
7045;SDS011;3564;53.326;10.356;2022-08-11T00:55:33;5.13;;;2.80;;
7045;SDS011;3564;53.326;10.356;2022-08-11T01:01:11;5.17;;;3.20;;
7045;SDS011;3564;53.326;10.356;2022-08-11T01:09:19;6.07;;;3.10;;
7045;SDS011;3564;53.326;10.356;2022-08-11T01:12:13;5.07;;;3.17;;
7045;SDS011;3564;53.326;10.356;2022-08-11T01:18:08;5.03;;;3.10;;
7045;SDS011;3564;53.326;10.356;2022-08-11T01:23:48;4.00;;;3.13;;
7045;SDS011;3564;53.326;10.356;2022-08-11T01:47:46;3.97;;;2.70;;
7045;SDS011;3564;53.326;10.356;2022-08-11T01:53:30;3.40;;;3.00;;
7045;SDS011;3564;53.326;10.356;2022-08-11T02:11:29;5.73;;;3.23;;
7045;SDS011;3564;53.326;10.356;2022-08-11T02:14:01;6.70;;;3.20;;
7045;SDS011;3564;53.326;10.356;2022-08-11T02:25:28;4.67;;;3.00;;
7045;SDS011;3564;53.326;10.356;2022-08-11T02:28:28;6.57;;;2.90;;
7045;SDS011;3564;53.326;10.356;2022-08-11T02:31:05;3.00;;;2.80;;
7045;SDS011;3564;53.326;10.356;2022-08-11T02:34:29;3.93;;;3.00;;
7045;SDS011;3564;53.326;10.356;2022-08-11T02:51:03;3.20;;;2.90;;
7045;SDS011;3564;53.326;10.356;2022-08-11T02:53:53;3.67;;;2.53;;
7045;SDS011;3564;53.326;10.356;2022-08-11T02:59:44;3.93;;;3.00;;
7045;SDS011;3564;53.326;10.356;2022-08-11T03:02:39;4.13;;;3.37;;
7045;SDS011;3564;53.326;10.356;2022-08-11T03:05:36;3.93;;;3.10;;
7045;SDS011;3564;53.326;10.356;2022-08-11T03:11:10;4.60;;;3.37;;
7045;SDS011;3564;53.326;10.356;2022-08-11T03:16:59;3.00;;;2.63;;
7045;SDS011;3564;53.326;10.356;2022-08-11T03:22:22;4.00;;;2.90;;
7045;SDS011;3564;53.326;10.356;2022-08-11T03:25:05;3.73;;;3.00;;
7045;SDS011;3564;53.326;10.356;2022-08-11T03:35:37;5.53;;;3.10;;
7045;SDS011;3564;53.326;10.356;2022-08-11T03:38:13;4.93;;;3.30;;
7045;SDS011;3564;53.326;10.356;2022-08-11T03:40:50;3.23;;;2.93;;
7045;SDS011;3564;53.326;10.356;2022-08-11T03:58:17;4.90;;;3.10;;
7045;SDS011;3564;53.326;10.356;2022-08-11T04:04:19;4.17;;;3.27;;
7045;SDS011;3564;53.326;10.356;2022-08-11T04:35:16;3.60;;;3.17;;
7045;SDS011;3564;53.326;10.356;2022-08-11T04:48:57;3.93;;;2.97;;
7045;SDS011;3564;53.326;10.356;2022-08-11T05:02:15;3.67;;;3.00;;
7045;SDS011;3564;53.326;10.356;2022-08-11T05:05:02;3.73;;;3.07;;
7045;SDS011;3564;53.326;10.356;2022-08-11T05:08:19;2.67;;;2.47;;
7045;SDS011;3564;53.326;10.356;2022-08-11T05:16:57;4.37;;;3.40;;
7045;SDS011;3564;53.326;10.356;2022-08-11T05:19:46;4.50;;;3.20;;
7045;SDS011;3564;53.326;10.356;2022-08-11T05:22:31;4.33;;;3.83;;
7045;SDS011;3564;53.326;10.356;2022-08-11T05:25:28;6.87;;;3.57;;
7045;SDS011;3564;53.326;10.356;2022-08-11T05:28:15;4.23;;;3.60;;
7045;SDS011;3564;53.326;10.356;2022-08-11T05:31:31;4.57;;;4.00;;
7045;SDS011;3564;53.326;10.356;2022-08-11T05:34:19;5.23;;;4.13;;
7045;SDS011;3564;53.326;10.356;2022-08-11T05:37:13;4.63;;;4.13;;
7045;SDS011;3564;53.326;10.356;2022-08-11T05:39:49;4.80;;;4.00;;
7045;SDS011;3564;53.326;10.356;2022-08-11T05:42:41;5.47;;;4.20;;
7045;SDS011;3564;53.326;10.356;2022-08-11T05:45:33;5.00;;;4.00;;
7045;SDS011;3564;53.326;10.356;2022-08-11T05:48:19;6.17;;;3.67;;
7045;SDS011;3564;53.326;10.356;2022-08-11T05:51:04;5.70;;;3.90;;
7045;SDS011;3564;53.326;10.356;2022-08-11T05:53:50;7.93;;;4.07;;
7045;SDS011;3564;53.326;10.356;2022-08-11T05:56:45;5.30;;;4.37;;
7045;SDS011;3564;53.326;10.356;2022-08-11T05:59:18;4.97;;;3.93;;
7045;SDS011;3564;53.326;10.356;2022-08-11T06:01:45;6.17;;;4.40;;
7045;SDS011;3564;53.326;10.356;2022-08-11T06:04:30;4.20;;;3.80;;
7045;SDS011;3564;53.326;10.356;2022-08-11T06:06:58;6.43;;;4.10;;
7045;SDS011;3564;53.326;10.356;2022-08-11T06:12:17;5.17;;;3.80;;
7045;SDS011;3564;53.326;10.356;2022-08-11T06:14:59;4.83;;;3.70;;
7045;SDS011;3564;53.326;10.356;2022-08-11T06:17:29;4.80;;;3.90;;
7045;SDS011;3564;53.326;10.356;2022-08-11T06:19:59;6.73;;;3.73;;
7045;SDS011;3564;53.326;10.356;2022-08-11T06:22:26;4.73;;;3.50;;
7045;SDS011;3564;53.326;10.356;2022-08-11T06:24:55;5.67;;;3.60;;
7045;SDS011;3564;53.326;10.356;2022-08-11T06:27:23;3.83;;;3.53;;
7045;SDS011;3564;53.326;10.356;2022-08-11T06:29:53;4.90;;;3.10;;
7045;SDS011;3564;53.326;10.356;2022-08-11T06:32:41;3.23;;;2.87;;
7045;SDS011;3564;53.326;10.356;2022-08-11T06:35:14;4.27;;;3.50;;
7045;SDS011;3564;53.326;10.356;2022-08-11T06:46:37;4.93;;;3.10;;
7045;SDS011;3564;53.326;10.356;2022-08-11T06:49:05;2.90;;;2.70;;
7045;SDS011;3564;53.326;10.356;2022-08-11T06:51:55;3.30;;;3.00;;
7045;SDS011;3564;53.326;10.356;2022-08-11T06:54:32;3.97;;;3.50;;
7045;SDS011;3564;53.326;10.356;2022-08-11T06:57:00;4.17;;;3.10;;
7045;SDS011;3564;53.326;10.356;2022-08-11T06:59:46;3.90;;;2.63;;
7045;SDS011;3564;53.326;10.356;2022-08-11T07:02:42;3.57;;;3.10;;
7045;SDS011;3564;53.326;10.356;2022-08-11T07:05:19;5.00;;;3.03;;
7045;SDS011;3564;53.326;10.356;2022-08-11T07:08:06;4.43;;;3.20;;
7045;SDS011;3564;53.326;10.356;2022-08-11T07:14:35;5.17;;;3.07;;
7045;SDS011;3564;53.326;10.356;2022-08-11T07:17:22;4.60;;;2.50;;
7045;SDS011;3564;53.326;10.356;2022-08-11T07:19:53;3.63;;;2.77;;
7045;SDS011;3564;53.326;10.356;2022-08-11T07:22:40;4.60;;;2.63;;
7045;SDS011;3564;53.326;10.356;2022-08-11T07:25:31;6.80;;;2.70;;
7045;SDS011;3564;53.326;10.356;2022-08-11T07:28:28;9.47;;;2.77;;
7045;SDS011;3564;53.326;10.356;2022-08-11T07:31:21;3.57;;;2.50;;
7045;SDS011;3564;53.326;10.356;2022-08-11T07:34:01;5.10;;;2.67;;
7045;SDS011;3564;53.326;10.356;2022-08-11T07:36:58;3.00;;;2.50;;
7045;SDS011;3564;53.326;10.356;2022-08-11T07:39:30;2.50;;;2.20;;
7045;SDS011;3564;53.326;10.356;2022-08-11T07:41:57;3.47;;;2.33;;
7045;SDS011;3564;53.326;10.356;2022-08-11T07:44:24;2.97;;;2.30;;
7045;SDS011;3564;53.326;10.356;2022-08-11T07:46:55;4.63;;;2.40;;
7045;SDS011;3564;53.326;10.356;2022-08-11T07:49:39;2.63;;;2.20;;
7045;SDS011;3564;53.326;10.356;2022-08-11T07:52:28;2.87;;;1.90;;
7045;SDS011;3564;53.326;10.356;2022-08-11T07:55:00;2.80;;;2.10;;
7045;SDS011;3564;53.326;10.356;2022-08-11T07:57:30;5.10;;;2.33;;
7045;SDS011;3564;53.326;10.356;2022-08-11T08:00:19;2.57;;;2.33;;
7045;SDS011;3564;53.326;10.356;2022-08-11T08:03:03;4.40;;;2.53;;
7045;SDS011;3564;53.326;10.356;2022-08-11T08:05:49;3.10;;;2.53;;
7045;SDS011;3564;53.326;10.356;2022-08-11T08:08:34;3.90;;;2.63;;
7045;SDS011;3564;53.326;10.356;2022-08-11T08:11:20;3.50;;;2.60;;
7045;SDS011;3564;53.326;10.356;2022-08-11T08:14:07;2.67;;;2.47;;
7045;SDS011;3564;53.326;10.356;2022-08-11T08:16:52;2.87;;;2.50;;
7045;SDS011;3564;53.326;10.356;2022-08-11T08:19:39;2.97;;;2.67;;
7045;SDS011;3564;53.326;10.356;2022-08-11T08:22:10;3.37;;;2.70;;
7045;SDS011;3564;53.326;10.356;2022-08-11T08:24:38;3.20;;;2.63;;
7045;SDS011;3564;53.326;10.356;2022-08-11T08:27:05;6.17;;;2.87;;
7045;SDS011;3564;53.326;10.356;2022-08-11T08:29:34;2.97;;;2.23;;
7045;SDS011;3564;53.326;10.356;2022-08-11T08:32:19;2.60;;;2.40;;
7045;SDS011;3564;53.326;10.356;2022-08-11T08:34:46;3.10;;;2.57;;
7045;SDS011;3564;53.326;10.356;2022-08-11T08:37:17;3.27;;;2.53;;
7045;SDS011;3564;53.326;10.356;2022-08-11T08:39:46;5.77;;;2.50;;
7045;SDS011;3564;53.326;10.356;2022-08-11T08:42:16;2.97;;;2.20;;
7045;SDS011;3564;53.326;10.356;2022-08-11T08:44:46;2.20;;;1.97;;
7045;SDS011;3564;53.326;10.356;2022-08-11T08:47:29;2.23;;;2.00;;
7045;SDS011;3564;53.326;10.356;2022-08-11T08:50:00;4.00;;;1.83;;
7045;SDS011;3564;53.326;10.356;2022-08-11T08:52:30;2.93;;;2.10;;
7045;SDS011;3564;53.326;10.356;2022-08-11T08:55:05;6.67;;;2.30;;
7045;SDS011;3564;53.326;10.356;2022-08-11T08:57:36;3.47;;;2.20;;
7045;SDS011;3564;53.326;10.356;2022-08-11T09:00:05;2.30;;;2.10;;
7045;SDS011;3564;53.326;10.356;2022-08-11T09:02:39;3.10;;;2.27;;
7045;SDS011;3564;53.326;10.356;2022-08-11T09:05:05;2.15;;;1.92;;
7045;SDS011;3564;53.326;10.356;2022-08-11T09:07:33;2.77;;;1.90;;
7045;SDS011;3564;53.326;10.356;2022-08-11T09:09:59;2.27;;;2.10;;
7045;SDS011;3564;53.326;10.356;2022-08-11T09:12:26;2.83;;;2.00;;
7045;SDS011;3564;53.326;10.356;2022-08-11T09:14:53;2.30;;;1.93;;
7045;SDS011;3564;53.326;10.356;2022-08-11T09:17:27;2.10;;;1.90;;
7045;SDS011;3564;53.326;10.356;2022-08-11T09:19:58;2.37;;;1.90;;
7045;SDS011;3564;53.326;10.356;2022-08-11T09:22:40;4.25;;;1.92;;
7045;SDS011;3564;53.326;10.356;2022-08-11T09:25:26;2.40;;;2.20;;
7045;SDS011;3564;53.326;10.356;2022-08-11T09:28:13;5.00;;;2.55;;
7045;SDS011;3564;53.326;10.356;2022-08-11T09:30:40;4.40;;;2.10;;
7045;SDS011;3564;53.326;10.356;2022-08-11T09:33:17;3.28;;;2.15;;
7045;SDS011;3564;53.326;10.356;2022-08-11T09:35:45;2.47;;;2.00;;
7045;SDS011;3564;53.326;10.356;2022-08-11T09:38:14;3.60;;;2.35;;
7045;SDS011;3564;53.326;10.356;2022-08-11T09:41:04;3.67;;;2.10;;
7045;SDS011;3564;53.326;10.356;2022-08-11T09:43:34;4.13;;;2.40;;
7045;SDS011;3564;53.326;10.356;2022-08-11T09:46:25;2.83;;;2.05;;
7045;SDS011;3564;53.326;10.356;2022-08-11T09:48:52;3.42;;;2.25;;
7045;SDS011;3564;53.326;10.356;2022-08-11T09:51:20;3.75;;;2.50;;
7045;SDS011;3564;53.326;10.356;2022-08-11T09:53:47;6.90;;;2.28;;
7045;SDS011;3564;53.326;10.356;2022-08-11T09:56:14;4.82;;;2.35;;
7045;SDS011;3564;53.326;10.356;2022-08-11T09:59:01;2.40;;;2.20;;
7045;SDS011;3564;53.326;10.356;2022-08-11T10:01:37;3.05;;;2.30;;
7045;SDS011;3564;53.326;10.356;2022-08-11T10:04:30;2.40;;;2.20;;
7045;SDS011;3564;53.326;10.356;2022-08-11T10:07:09;4.10;;;2.30;;
7045;SDS011;3564;53.326;10.356;2022-08-11T10:09:42;6.05;;;2.30;;
7045;SDS011;3564;53.326;10.356;2022-08-11T10:12:31;2.88;;;2.22;;
7045;SDS011;3564;53.326;10.356;2022-08-11T10:15:06;2.25;;;2.05;;
7045;SDS011;3564;53.326;10.356;2022-08-11T10:17:52;1.90;;;1.80;;
7045;SDS011;3564;53.326;10.356;2022-08-11T10:20:45;3.63;;;2.10;;
7045;SDS011;3564;53.326;10.356;2022-08-11T10:23:14;6.18;;;2.58;;
7045;SDS011;3564;53.326;10.356;2022-08-11T10:25:59;3.72;;;1.90;;
7045;SDS011;3564;53.326;10.356;2022-08-11T10:28:45;4.13;;;2.40;;
7045;SDS011;3564;53.326;10.356;2022-08-11T10:31:12;3.10;;;2.17;;
7045;SDS011;3564;53.326;10.356;2022-08-11T10:33:56;3.10;;;1.80;;
7045;SDS011;3564;53.326;10.356;2022-08-11T10:36:26;2.80;;;1.92;;
7045;SDS011;3564;53.326;10.356;2022-08-11T10:39:19;4.80;;;2.20;;
7045;SDS011;3564;53.326;10.356;2022-08-11T10:41:46;4.47;;;2.10;;
7045;SDS011;3564;53.326;10.356;2022-08-11T10:44:36;2.30;;;2.10;;
7045;SDS011;3564;53.326;10.356;2022-08-11T10:47:04;2.10;;;1.90;;
7045;SDS011;3564;53.326;10.356;2022-08-11T10:49:49;4.18;;;2.10;;
7045;SDS011;3564;53.326;10.356;2022-08-11T10:52:36;2.30;;;1.85;;
7045;SDS011;3564;53.326;10.356;2022-08-11T10:55:22;3.92;;;2.13;;
7045;SDS011;3564;53.326;10.356;2022-08-11T10:58:08;3.00;;;1.90;;
7045;SDS011;3564;53.326;10.356;2022-08-11T11:00:53;4.35;;;1.90;;
7045;SDS011;3564;53.326;10.356;2022-08-11T11:03:21;2.30;;;1.90;;
7045;SDS011;3564;53.326;10.356;2022-08-11T11:05:50;2.20;;;1.70;;
7045;SDS011;3564;53.326;10.356;2022-08-11T11:08:18;1.80;;;1.70;;
7045;SDS011;3564;53.326;10.356;2022-08-11T11:11:08;2.42;;;1.88;;
7045;SDS011;3564;53.326;10.356;2022-08-11T11:13:34;2.10;;;1.90;;
7045;SDS011;3564;53.326;10.356;2022-08-11T11:16:34;2.40;;;1.90;;
7045;SDS011;3564;53.326;10.356;2022-08-11T11:19:20;1.88;;;1.77;;
7045;SDS011;3564;53.326;10.356;2022-08-11T11:21:52;2.47;;;1.80;;
7045;SDS011;3564;53.326;10.356;2022-08-11T11:24:44;2.20;;;1.63;;
7045;SDS011;3564;53.326;10.356;2022-08-11T11:27:27;2.28;;;2.03;;
7045;SDS011;3564;53.326;10.356;2022-08-11T11:30:16;2.03;;;1.80;;
7045;SDS011;3564;53.326;10.356;2022-08-11T11:32:46;1.50;;;1.40;;
7045;SDS011;3564;53.326;10.356;2022-08-11T11:38:19;3.17;;;1.90;;
7045;SDS011;3564;53.326;10.356;2022-08-11T11:40:45;1.63;;;1.52;;
7045;SDS011;3564;53.326;10.356;2022-08-11T11:43:31;1.80;;;1.70;;
7045;SDS011;3564;53.326;10.356;2022-08-11T11:45:59;2.00;;;1.75;;
7045;SDS011;3564;53.326;10.356;2022-08-11T11:48:25;1.80;;;1.70;;
7045;SDS011;3564;53.326;10.356;2022-08-11T11:50:53;2.35;;;1.70;;
7045;SDS011;3564;53.326;10.356;2022-08-11T11:53:26;1.90;;;1.70;;
7045;SDS011;3564;53.326;10.356;2022-08-11T11:55:51;2.28;;;1.80;;
7045;SDS011;3564;53.326;10.356;2022-08-11T11:58:17;1.65;;;1.50;;
7045;SDS011;3564;53.326;10.356;2022-08-11T12:01:02;1.88;;;1.58;;
7045;SDS011;3564;53.326;10.356;2022-08-11T12:03:40;2.78;;;1.83;;
7045;SDS011;3564;53.326;10.356;2022-08-11T12:06:10;2.00;;;1.80;;
7045;SDS011;3564;53.326;10.356;2022-08-11T12:08:40;2.95;;;1.70;;
7045;SDS011;3564;53.326;10.356;2022-08-11T12:11:10;2.95;;;1.83;;
7045;SDS011;3564;53.326;10.356;2022-08-11T12:13:59;3.53;;;1.70;;
7045;SDS011;3564;53.326;10.356;2022-08-11T12:16:27;1.92;;;1.67;;
7045;SDS011;3564;53.326;10.356;2022-08-11T12:18:56;5.57;;;1.85;;
7045;SDS011;3564;53.326;10.356;2022-08-11T12:21:24;2.83;;;1.80;;
7045;SDS011;3564;53.326;10.356;2022-08-11T12:23:51;1.75;;;1.60;;
7045;SDS011;3564;53.326;10.356;2022-08-11T12:26:39;3.30;;;1.73;;
7045;SDS011;3564;53.326;10.356;2022-08-11T12:29:24;3.05;;;1.67;;
7045;SDS011;3564;53.326;10.356;2022-08-11T12:31:52;2.10;;;1.60;;
7045;SDS011;3564;53.326;10.356;2022-08-11T12:34:19;3.03;;;1.98;;
7045;SDS011;3564;53.326;10.356;2022-08-11T12:36:47;2.30;;;1.80;;
7045;SDS011;3564;53.326;10.356;2022-08-11T12:39:22;2.13;;;1.92;;
7045;SDS011;3564;53.326;10.356;2022-08-11T12:42:11;1.92;;;1.75;;
7045;SDS011;3564;53.326;10.356;2022-08-11T12:44:58;3.47;;;1.83;;
7045;SDS011;3564;53.326;10.356;2022-08-11T12:47:45;1.95;;;1.80;;
7045;SDS011;3564;53.326;10.356;2022-08-11T12:50:33;2.58;;;1.73;;
7045;SDS011;3564;53.326;10.356;2022-08-11T12:53:23;3.53;;;1.40;;
7045;SDS011;3564;53.326;10.356;2022-08-11T12:55:53;1.60;;;1.45;;
7045;SDS011;3564;53.326;10.356;2022-08-11T12:58:40;1.65;;;1.55;;
7045;SDS011;3564;53.326;10.356;2022-08-11T13:01:07;2.20;;;1.58;;
7045;SDS011;3564;53.326;10.356;2022-08-11T13:03:52;1.52;;;1.40;;
7045;SDS011;3564;53.326;10.356;2022-08-11T13:06:37;3.75;;;1.80;;
7045;SDS011;3564;53.326;10.356;2022-08-11T13:09:06;3.03;;;1.20;;
7045;SDS011;3564;53.326;10.356;2022-08-11T13:11:33;3.03;;;1.60;;
7045;SDS011;3564;53.326;10.356;2022-08-11T13:14:18;2.40;;;1.67;;
7045;SDS011;3564;53.326;10.356;2022-08-11T13:16:44;1.50;;;1.40;;
7045;SDS011;3564;53.326;10.356;2022-08-11T13:19:29;1.75;;;1.65;;
7045;SDS011;3564;53.326;10.356;2022-08-11T13:21:56;1.60;;;1.50;;
7045;SDS011;3564;53.326;10.356;2022-08-11T13:24:22;5.70;;;1.67;;
7045;SDS011;3564;53.326;10.356;2022-08-11T13:26:49;1.85;;;1.40;;
7045;SDS011;3564;53.326;10.356;2022-08-11T13:29:19;1.60;;;1.50;;
7045;SDS011;3564;53.326;10.356;2022-08-11T13:32:01;2.38;;;1.67;;
7045;SDS011;3564;53.326;10.356;2022-08-11T13:34:28;1.40;;;1.30;;
7045;SDS011;3564;53.326;10.356;2022-08-11T13:36:58;1.55;;;1.45;;
7045;SDS011;3564;53.326;10.356;2022-08-11T13:39:27;1.42;;;1.33;;
7045;SDS011;3564;53.326;10.356;2022-08-11T13:41:56;1.30;;;1.20;;
7045;SDS011;3564;53.326;10.356;2022-08-11T13:44:27;1.65;;;1.55;;
7045;SDS011;3564;53.326;10.356;2022-08-11T13:46:57;1.60;;;1.50;;
7045;SDS011;3564;53.326;10.356;2022-08-11T13:49:25;3.15;;;1.40;;
7045;SDS011;3564;53.326;10.356;2022-08-11T13:51:51;2.38;;;1.77;;
7045;SDS011;3564;53.326;10.356;2022-08-11T13:54:22;2.05;;;1.50;;
7045;SDS011;3564;53.326;10.356;2022-08-11T13:56:53;2.15;;;1.40;;
7045;SDS011;3564;53.326;10.356;2022-08-11T13:59:20;1.67;;;1.50;;
7045;SDS011;3564;53.326;10.356;2022-08-11T14:01:52;1.42;;;1.30;;
7045;SDS011;3564;53.326;10.356;2022-08-11T14:04:30;1.40;;;1.30;;
7045;SDS011;3564;53.326;10.356;2022-08-11T14:07:19;1.98;;;1.30;;
7045;SDS011;3564;53.326;10.356;2022-08-11T14:09:47;2.08;;;1.30;;
7045;SDS011;3564;53.326;10.356;2022-08-11T14:12:20;2.92;;;1.42;;
7045;SDS011;3564;53.326;10.356;2022-08-11T14:15:13;1.30;;;1.20;;
7045;SDS011;3564;53.326;10.356;2022-08-11T14:17:59;2.03;;;1.40;;
7045;SDS011;3564;53.326;10.356;2022-08-11T14:20:33;3.33;;;1.55;;
7045;SDS011;3564;53.326;10.356;2022-08-11T14:23:22;1.48;;;1.30;;
7045;SDS011;3564;53.326;10.356;2022-08-11T14:25:52;2.50;;;1.58;;
7045;SDS011;3564;53.326;10.356;2022-08-11T14:28:38;1.52;;;1.33;;
7045;SDS011;3564;53.326;10.356;2022-08-11T14:31:05;1.73;;;1.33;;
7045;SDS011;3564;53.326;10.356;2022-08-11T14:33:32;2.50;;;1.45;;
7045;SDS011;3564;53.326;10.356;2022-08-11T14:35:59;1.33;;;1.23;;
7045;SDS011;3564;53.326;10.356;2022-08-11T14:38:27;2.35;;;1.40;;
7045;SDS011;3564;53.326;10.356;2022-08-11T14:40:53;2.70;;;1.30;;
7045;SDS011;3564;53.326;10.356;2022-08-11T14:43:37;2.13;;;1.52;;
7045;SDS011;3564;53.326;10.356;2022-08-11T14:46:23;3.17;;;1.60;;
7045;SDS011;3564;53.326;10.356;2022-08-11T14:49:07;3.20;;;1.50;;
7045;SDS011;3564;53.326;10.356;2022-08-11T14:51:34;2.22;;;1.50;;
7045;SDS011;3564;53.326;10.356;2022-08-11T14:54:00;3.00;;;1.20;;
7045;SDS011;3564;53.326;10.356;2022-08-11T14:56:45;1.92;;;1.40;;
7045;SDS011;3564;53.326;10.356;2022-08-11T14:59:12;1.95;;;1.38;;
7045;SDS011;3564;53.326;10.356;2022-08-11T15:01:38;1.55;;;1.30;;
7045;SDS011;3564;53.326;10.356;2022-08-11T15:04:23;2.63;;;1.30;;
7045;SDS011;3564;53.326;10.356;2022-08-11T15:06:49;1.75;;;1.63;;
7045;SDS011;3564;53.326;10.356;2022-08-11T15:09:15;1.40;;;1.30;;
7045;SDS011;3564;53.326;10.356;2022-08-11T15:11:42;1.52;;;1.33;;
7045;SDS011;3564;53.326;10.356;2022-08-11T15:14:27;5.35;;;1.38;;
7045;SDS011;3564;53.326;10.356;2022-08-11T15:17:11;2.28;;;1.40;;
7045;SDS011;3564;53.326;10.356;2022-08-11T15:19:39;1.85;;;1.33;;
7045;SDS011;3564;53.326;10.356;2022-08-11T15:22:27;3.47;;;1.50;;
7045;SDS011;3564;53.326;10.356;2022-08-11T15:25:11;6.78;;;1.40;;
7045;SDS011;3564;53.326;10.356;2022-08-11T15:27:37;1.50;;;1.40;;
7045;SDS011;3564;53.326;10.356;2022-08-11T15:30:23;2.60;;;1.58;;
7045;SDS011;3564;53.326;10.356;2022-08-11T15:33:10;2.83;;;1.70;;
7045;SDS011;3564;53.326;10.356;2022-08-11T15:35:57;2.00;;;1.40;;
7045;SDS011;3564;53.326;10.356;2022-08-11T15:38:47;1.88;;;1.58;;
7045;SDS011;3564;53.326;10.356;2022-08-11T15:41:22;2.28;;;1.48;;
7045;SDS011;3564;53.326;10.356;2022-08-11T15:44:14;2.60;;;1.55;;
7045;SDS011;3564;53.326;10.356;2022-08-11T15:47:00;3.25;;;1.70;;
7045;SDS011;3564;53.326;10.356;2022-08-11T15:49:32;1.75;;;1.60;;
7045;SDS011;3564;53.326;10.356;2022-08-11T15:52:06;3.88;;;1.60;;
7045;SDS011;3564;53.326;10.356;2022-08-11T15:54:36;4.90;;;1.70;;
7045;SDS011;3564;53.326;10.356;2022-08-11T15:57:06;4.93;;;1.60;;
7045;SDS011;3564;53.326;10.356;2022-08-11T15:59:35;1.42;;;1.15;;
7045;SDS011;3564;53.326;10.356;2022-08-11T16:02:21;2.05;;;1.50;;
7045;SDS011;3564;53.326;10.356;2022-08-11T16:05:07;4.03;;;1.52;;
7045;SDS011;3564;53.326;10.356;2022-08-11T16:07:37;2.72;;;1.45;;
7045;SDS011;3564;53.326;10.356;2022-08-11T16:10:05;2.88;;;1.42;;
7045;SDS011;3564;53.326;10.356;2022-08-11T16:15:05;1.65;;;1.55;;
7045;SDS011;3564;53.326;10.356;2022-08-11T16:17:51;2.65;;;1.52;;
7045;SDS011;3564;53.326;10.356;2022-08-11T16:20:29;2.67;;;1.60;;
7045;SDS011;3564;53.326;10.356;2022-08-11T16:22:58;1.40;;;1.30;;
7045;SDS011;3564;53.326;10.356;2022-08-11T16:25:28;1.38;;;1.27;;
7045;SDS011;3564;53.326;10.356;2022-08-11T16:27:59;5.43;;;1.65;;
7045;SDS011;3564;53.326;10.356;2022-08-11T16:30:30;1.60;;;1.50;;
7045;SDS011;3564;53.326;10.356;2022-08-11T16:32:58;2.03;;;1.80;;
7045;SDS011;3564;53.326;10.356;2022-08-11T16:35:25;1.73;;;1.60;;
7045;SDS011;3564;53.326;10.356;2022-08-11T16:38:11;1.83;;;1.70;;
7045;SDS011;3564;53.326;10.356;2022-08-11T16:40:57;3.00;;;1.52;;
7045;SDS011;3564;53.326;10.356;2022-08-11T16:43:28;7.25;;;1.30;;
7045;SDS011;3564;53.326;10.356;2022-08-11T16:46:15;3.65;;;1.52;;
7045;SDS011;3564;53.326;10.356;2022-08-11T16:49:01;3.47;;;1.45;;
7045;SDS011;3564;53.326;10.356;2022-08-11T16:51:29;1.70;;;1.40;;
7045;SDS011;3564;53.326;10.356;2022-08-11T16:53:55;2.45;;;1.30;;
7045;SDS011;3564;53.326;10.356;2022-08-11T16:56:23;3.85;;;1.75;;
7045;SDS011;3564;53.326;10.356;2022-08-11T16:58:55;4.00;;;1.50;;
7045;SDS011;3564;53.326;10.356;2022-08-11T17:01:40;2.85;;;1.30;;
7045;SDS011;3564;53.326;10.356;2022-08-11T17:07:01;2.33;;;1.23;;
7045;SDS011;3564;53.326;10.356;2022-08-11T17:10:00;2.63;;;1.50;;
7045;SDS011;3564;53.326;10.356;2022-08-11T17:12:48;2.78;;;1.30;;
7045;SDS011;3564;53.326;10.356;2022-08-11T17:15:35;1.40;;;1.30;;
7045;SDS011;3564;53.326;10.356;2022-08-11T17:18:24;3.05;;;1.35;;
7045;SDS011;3564;53.326;10.356;2022-08-11T17:21:48;2.78;;;1.30;;
7045;SDS011;3564;53.326;10.356;2022-08-11T17:24:45;6.72;;;1.42;;
7045;SDS011;3564;53.326;10.356;2022-08-11T17:27:12;4.97;;;1.85;;
7045;SDS011;3564;53.326;10.356;2022-08-11T17:29:51;4.28;;;2.00;;
7045;SDS011;3564;53.326;10.356;2022-08-11T17:32:20;2.78;;;1.38;;
7045;SDS011;3564;53.326;10.356;2022-08-11T17:35:14;3.13;;;1.42;;
7045;SDS011;3564;53.326;10.356;2022-08-11T17:38:00;1.63;;;1.40;;
7045;SDS011;3564;53.326;10.356;2022-08-11T17:40:33;2.63;;;1.60;;
7045;SDS011;3564;53.326;10.356;2022-08-11T17:43:02;2.13;;;1.50;;
7045;SDS011;3564;53.326;10.356;2022-08-11T17:45:49;6.05;;;1.80;;
7045;SDS011;3564;53.326;10.356;2022-08-11T17:48:35;7.65;;;1.73;;
7045;SDS011;3564;53.326;10.356;2022-08-11T17:53:34;4.00;;;1.45;;
7045;SDS011;3564;53.326;10.356;2022-08-11T17:56:21;3.83;;;1.88;;
7045;SDS011;3564;53.326;10.356;2022-08-11T17:59:07;3.42;;;1.58;;
7045;SDS011;3564;53.326;10.356;2022-08-11T18:01:53;2.25;;;1.40;;
7045;SDS011;3564;53.326;10.356;2022-08-11T18:04:41;3.10;;;1.60;;
7045;SDS011;3564;53.326;10.356;2022-08-11T18:07:08;2.83;;;1.67;;
7045;SDS011;3564;53.326;10.356;2022-08-11T18:09:53;4.47;;;1.70;;
7045;SDS011;3564;53.326;10.356;2022-08-11T18:12:41;3.10;;;1.50;;
7045;SDS011;3564;53.326;10.356;2022-08-11T18:15:26;3.95;;;1.85;;
7045;SDS011;3564;53.326;10.356;2022-08-11T18:18:11;3.63;;;1.42;;
7045;SDS011;3564;53.326;10.356;2022-08-11T18:20:55;4.28;;;1.85;;
7045;SDS011;3564;53.326;10.356;2022-08-11T18:23:40;2.42;;;1.67;;
7045;SDS011;3564;53.326;10.356;2022-08-11T18:26:24;2.05;;;1.45;;
7045;SDS011;3564;53.326;10.356;2022-08-11T18:29:10;2.08;;;1.38;;
7045;SDS011;3564;53.326;10.356;2022-08-11T18:31:58;3.92;;;1.45;;
7045;SDS011;3564;53.326;10.356;2022-08-11T18:34:45;4.35;;;1.30;;
7045;SDS011;3564;53.326;10.356;2022-08-11T18:37:32;3.50;;;1.55;;
7045;SDS011;3564;53.326;10.356;2022-08-11T18:40:19;5.93;;;1.40;;
7045;SDS011;3564;53.326;10.356;2022-08-11T18:43:09;2.58;;;1.73;;
7045;SDS011;3564;53.326;10.356;2022-08-11T18:46:00;2.35;;;1.30;;
7045;SDS011;3564;53.326;10.356;2022-08-11T18:48:52;1.77;;;1.30;;
7045;SDS011;3564;53.326;10.356;2022-08-11T18:51:40;2.08;;;1.65;;
7045;SDS011;3564;53.326;10.356;2022-08-11T18:54:30;3.67;;;1.60;;
7045;SDS011;3564;53.326;10.356;2022-08-11T18:57:16;2.95;;;1.48;;
7045;SDS011;3564;53.326;10.356;2022-08-11T19:00:01;5.22;;;1.42;;
7045;SDS011;3564;53.326;10.356;2022-08-11T19:02:46;2.88;;;1.67;;
7045;SDS011;3564;53.326;10.356;2022-08-11T19:05:32;3.83;;;1.70;;
7045;SDS011;3564;53.326;10.356;2022-08-11T19:08:19;2.78;;;1.60;;
7045;SDS011;3564;53.326;10.356;2022-08-11T19:11:05;3.63;;;1.70;;
7045;SDS011;3564;53.326;10.356;2022-08-11T19:13:52;2.97;;;1.50;;
7045;SDS011;3564;53.326;10.356;2022-08-11T19:16:37;2.58;;;1.48;;
7045;SDS011;3564;53.326;10.356;2022-08-11T19:19:25;3.28;;;1.60;;
7045;SDS011;3564;53.326;10.356;2022-08-11T19:22:11;2.65;;;1.50;;
7045;SDS011;3564;53.326;10.356;2022-08-11T19:24:55;1.95;;;1.40;;
7045;SDS011;3564;53.326;10.356;2022-08-11T19:27:40;4.40;;;1.83;;
7045;SDS011;3564;53.326;10.356;2022-08-11T19:30:26;3.63;;;1.80;;
7045;SDS011;3564;53.326;10.356;2022-08-11T19:33:11;5.93;;;1.77;;
7045;SDS011;3564;53.326;10.356;2022-08-11T19:35:57;2.25;;;1.60;;